PWSweather.com
Personal Weather Stations
Station Observations
WD4JKH
Forsyth, GA 31029

Forsyth, GA 31029

Lat: 33.033225, Lon: -83.927995

Elevation: 709

Station Type: Davis Vantage VUE

High Low Average
Temperature 91.8°F33.2°C 71.8°F22.1°C 80.6°F27.0°C
Dew Point 75.5°F24.2°C 69.8°F21.0°C 72.0°F22.2°C
Winds 6.0 mph 9.7 kmh Calm Calm 2.0 mph SW3.2 kmh SW
Wind Gusts 14.0 mph22.5 kmh 1.0 mph1.6 kmh 5.0 mph8.0 kmh
Humidity 94% 52% 76%
Pressure 30.04 in1017.3 mb 29.90 in1012.5 mb -
Precipitation 0.00 in0.0 mm - -
Hour Temp Dew Point Humidity Winds Wind Gusts Pressure Precip Precip Rate Daily Precip Total
12:00 AM 78.5°F25.8°C 70.8°F21.6°C 77% 2.0 mph SW3.2 kmh SW 6.0 mph9.7 kmh 30.02 in1016.6 mb 0.00 in0.0 mm 0.00 in0.0 mm 0.00 in0.0 mm
12:05 AM 78.4°F25.8°C 71.1°F21.7°C 78% 1.0 mph SW1.6 kmh SW 6.0 mph9.7 kmh 30.02 in1016.6 mb 0.00 in0.0 mm 0.00 in0.0 mm 0.00 in0.0 mm
12:10 AM 78.3°F25.7°C 71.0°F21.7°C 78% 1.4 mph SSW2.3 kmh SSW 6.0 mph9.7 kmh 30.02 in1016.6 mb 0.00 in0.0 mm 0.00 in0.0 mm 0.00 in0.0 mm
12:15 AM 78.2°F25.7°C 71.2°F21.8°C 79% 1.1 mph SW1.8 kmh SW 5.0 mph8.0 kmh 30.01 in1016.3 mb 0.00 in0.0 mm 0.00 in0.0 mm 0.00 in0.0 mm
12:20 AM 78.0°F25.6°C 71.1°F21.7°C 79% 1.5 mph SW2.4 kmh SW 5.0 mph8.0 kmh 30.01 in1016.3 mb 0.00 in0.0 mm 0.00 in0.0 mm 0.00 in0.0 mm
12:25 AM 77.8°F25.4°C 70.9°F21.6°C 79% Calm Calm 4.0 mph6.4 kmh 30.02 in1016.6 mb 0.00 in0.0 mm 0.00 in0.0 mm 0.00 in0.0 mm
12:30 AM 77.7°F25.4°C 71.1°F21.7°C 80% 2.3 mph SSW3.7 kmh SSW 4.0 mph6.4 kmh 30.02 in1016.6 mb 0.00 in0.0 mm 0.00 in0.0 mm 0.00 in0.0 mm
12:35 AM 77.7°F25.4°C 71.1°F21.7°C 80% 1.7 mph SW2.7 kmh SW 5.0 mph8.0 kmh 30.01 in1016.3 mb 0.00 in0.0 mm 0.00 in0.0 mm 0.00 in0.0 mm
12:40 AM 77.7°F25.4°C 71.0°F21.7°C 80% 1.2 mph SW1.9 kmh SW 5.0 mph8.0 kmh 30.02 in1016.6 mb 0.00 in0.0 mm 0.00 in0.0 mm 0.00 in0.0 mm
12:45 AM 77.6°F25.3°C 71.0°F21.7°C 80% 1.4 mph SW2.3 kmh SW 5.0 mph8.0 kmh 30.01 in1016.3 mb 0.00 in0.0 mm 0.00 in0.0 mm 0.00 in0.0 mm
12:50 AM 77.5°F25.3°C 70.9°F21.6°C 80% 1.5 mph SW2.4 kmh SW 5.0 mph8.0 kmh 30.01 in1016.3 mb 0.00 in0.0 mm 0.00 in0.0 mm 0.00 in0.0 mm
12:55 AM 77.4°F25.2°C 70.7°F21.5°C 80% 1.6 mph SW2.6 kmh SW 3.0 mph4.8 kmh 30.01 in1016.3 mb 0.00 in0.0 mm 0.00 in0.0 mm 0.00 in0.0 mm
12:59 AM 77.3°F25.2°C 71.1°F21.7°C 81% 1.3 mph SW2.1 kmh SW 3.0 mph4.8 kmh 30.01 in1016.3 mb 0.00 in0.0 mm 0.00 in0.0 mm 0.00 in0.0 mm
01:04 AM 77.2°F25.1°C 71.0°F21.7°C 81% 1.3 mph SW2.1 kmh SW 3.0 mph4.8 kmh 30.01 in1016.3 mb 0.00 in0.0 mm 0.00 in0.0 mm 0.00 in0.0 mm
01:09 AM 77.1°F25.1°C 70.8°F21.6°C 81% 1.5 mph SW2.4 kmh SW 4.0 mph6.4 kmh 30.00 in1015.9 mb 0.00 in0.0 mm 0.00 in0.0 mm 0.00 in0.0 mm
01:14 AM 77.0°F25.0°C 70.8°F21.6°C 81% 2.0 mph WSW3.2 kmh WSW 5.0 mph8.0 kmh 30.00 in1015.9 mb 0.00 in0.0 mm 0.00 in0.0 mm 0.00 in0.0 mm
01:19 AM 76.9°F24.9°C 71.1°F21.7°C 82% 1.5 mph WSW2.4 kmh WSW 5.0 mph8.0 kmh 30.00 in1015.9 mb 0.00 in0.0 mm 0.00 in0.0 mm 0.00 in0.0 mm
01:24 AM 76.8°F24.9°C 71.0°F21.7°C 82% 1.8 mph SW2.9 kmh SW 5.0 mph8.0 kmh 30.00 in1015.9 mb 0.00 in0.0 mm 0.00 in0.0 mm 0.00 in0.0 mm
01:29 AM 76.7°F24.8°C 70.9°F21.6°C 82% 1.6 mph SW2.6 kmh SW 5.0 mph8.0 kmh 30.00 in1015.9 mb 0.00 in0.0 mm 0.00 in0.0 mm 0.00 in0.0 mm
01:34 AM 76.6°F24.8°C 71.1°F21.7°C 83% 2.5 mph WSW4.0 kmh WSW 5.0 mph8.0 kmh 30.00 in1015.9 mb 0.00 in0.0 mm 0.00 in0.0 mm 0.00 in0.0 mm
01:39 AM 76.6°F24.8°C 71.1°F21.7°C 83% 1.7 mph WSW2.7 kmh WSW 5.0 mph8.0 kmh 30.00 in1015.9 mb 0.00 in0.0 mm 0.00 in0.0 mm 0.00 in0.0 mm
01:44 AM 76.6°F24.8°C 71.1°F21.7°C 83% 2.2 mph SW3.5 kmh SW 5.0 mph8.0 kmh 30.00 in1015.9 mb 0.00 in0.0 mm 0.00 in0.0 mm 0.00 in0.0 mm
01:49 AM 76.5°F24.7°C 71.0°F21.7°C 83% 2.2 mph WSW3.5 kmh WSW 5.0 mph8.0 kmh 29.99 in1015.6 mb 0.00 in0.0 mm 0.00 in0.0 mm 0.00 in0.0 mm
01:54 AM 76.4°F24.7°C 70.9°F21.6°C 83% 1.8 mph WSW2.9 kmh WSW 5.0 mph8.0 kmh 29.99 in1015.6 mb 0.00 in0.0 mm 0.00 in0.0 mm 0.00 in0.0 mm
01:59 AM 76.4°F24.7°C 71.3°F21.8°C 84% 2.0 mph WSW3.2 kmh WSW 6.0 mph9.7 kmh 29.98 in1015.2 mb 0.00 in0.0 mm 0.00 in0.0 mm 0.00 in0.0 mm
02:04 AM 76.4°F24.7°C 71.2°F21.8°C 84% 1.9 mph WSW3.1 kmh WSW 6.0 mph9.7 kmh 29.98 in1015.2 mb 0.00 in0.0 mm 0.00 in0.0 mm 0.00 in0.0 mm
02:09 AM 76.5°F24.7°C 71.4°F21.9°C 84% 2.4 mph WNW3.9 kmh WNW 6.0 mph9.7 kmh 29.97 in1014.9 mb 0.00 in0.0 mm 0.00 in0.0 mm 0.00 in0.0 mm
02:14 AM 76.6°F24.8°C 71.5°F21.9°C 84% 2.3 mph W3.7 kmh W 6.0 mph9.7 kmh 29.98 in1015.2 mb 0.00 in0.0 mm 0.00 in0.0 mm 0.00 in0.0 mm
02:19 AM 76.6°F24.8°C 71.4°F21.9°C 84% 2.2 mph W3.5 kmh W 7.0 mph11.3 kmh 29.98 in1015.2 mb 0.00 in0.0 mm 0.00 in0.0 mm 0.00 in0.0 mm
02:24 AM 76.5°F24.7°C 71.4°F21.9°C 84% 2.0 mph W3.2 kmh W 7.0 mph11.3 kmh 29.98 in1015.2 mb 0.00 in0.0 mm 0.00 in0.0 mm 0.00 in0.0 mm
02:29 AM 76.4°F24.7°C 71.3°F21.8°C 84% 1.0 mph SW1.6 kmh SW 7.0 mph11.3 kmh 29.98 in1015.2 mb 0.00 in0.0 mm 0.00 in0.0 mm 0.00 in0.0 mm
02:34 AM 76.2°F24.6°C 71.4°F21.9°C 85% 1.6 mph SSW2.6 kmh SSW 7.0 mph11.3 kmh 29.98 in1015.2 mb 0.00 in0.0 mm 0.00 in0.0 mm 0.00 in0.0 mm
02:39 AM 76.0°F24.4°C 71.2°F21.8°C 85% 1.6 mph WSW2.6 kmh WSW 7.0 mph11.3 kmh 29.98 in1015.2 mb 0.00 in0.0 mm 0.00 in0.0 mm 0.00 in0.0 mm
02:44 AM 75.8°F24.3°C 71.3°F21.8°C 86% 1.0 mph SW1.6 kmh SW 4.0 mph6.4 kmh 29.98 in1015.2 mb 0.00 in0.0 mm 0.00 in0.0 mm 0.00 in0.0 mm
02:49 AM 75.7°F24.3°C 71.2°F21.8°C 86% 1.3 mph WSW2.1 kmh WSW 4.0 mph6.4 kmh 29.98 in1015.2 mb 0.00 in0.0 mm 0.00 in0.0 mm 0.00 in0.0 mm
02:54 AM 75.5°F24.2°C 71.0°F21.7°C 86% 1.5 mph SW2.4 kmh SW 4.0 mph6.4 kmh 29.98 in1015.2 mb 0.00 in0.0 mm 0.00 in0.0 mm 0.00 in0.0 mm
02:59 AM 75.4°F24.1°C 71.3°F21.8°C 87% 1.6 mph WSW2.6 kmh WSW 4.0 mph6.4 kmh 29.98 in1015.2 mb 0.00 in0.0 mm 0.00 in0.0 mm 0.00 in0.0 mm
03:04 AM 75.2°F24.0°C 71.1°F21.7°C 87% 1.2 mph SW1.9 kmh SW 4.0 mph6.4 kmh 29.98 in1015.2 mb 0.00 in0.0 mm 0.00 in0.0 mm 0.00 in0.0 mm
03:09 AM 75.1°F23.9°C 71.0°F21.7°C 87% 1.0 mph SW1.6 kmh SW 4.0 mph6.4 kmh 29.98 in1015.2 mb 0.00 in0.0 mm 0.00 in0.0 mm 0.00 in0.0 mm
03:14 AM 75.1°F23.9°C 71.0°F21.7°C 87% 1.0 mph WSW1.6 kmh WSW 4.0 mph6.4 kmh 29.98 in1015.2 mb 0.00 in0.0 mm 0.00 in0.0 mm 0.00 in0.0 mm
03:19 AM 75.0°F23.9°C 71.2°F21.8°C 88% 1.6 mph SW2.6 kmh SW 4.0 mph6.4 kmh 29.98 in1015.2 mb 0.00 in0.0 mm 0.00 in0.0 mm 0.00 in0.0 mm
03:24 AM 74.8°F23.8°C 71.0°F21.7°C 88% 2.1 mph SW3.4 kmh SW 4.0 mph6.4 kmh 29.98 in1015.2 mb 0.00 in0.0 mm 0.00 in0.0 mm 0.00 in0.0 mm
03:29 AM 74.7°F23.7°C 70.9°F21.6°C 88% 1.0 mph SW1.6 kmh SW 4.0 mph6.4 kmh 29.98 in1015.2 mb 0.00 in0.0 mm 0.00 in0.0 mm 0.00 in0.0 mm
03:34 AM 74.5°F23.6°C 71.0°F21.7°C 89% Calm Calm 4.0 mph6.4 kmh 29.99 in1015.6 mb 0.00 in0.0 mm 0.00 in0.0 mm 0.00 in0.0 mm
03:39 AM 74.4°F23.6°C 70.9°F21.6°C 89% 1.0 mph SW1.6 kmh SW 4.0 mph6.4 kmh 29.99 in1015.6 mb 0.00 in0.0 mm 0.00 in0.0 mm 0.00 in0.0 mm
03:44 AM 74.2°F23.4°C 70.7°F21.5°C 89% 2.0 mph SSW3.2 kmh SSW 4.0 mph6.4 kmh 29.99 in1015.6 mb 0.00 in0.0 mm 0.00 in0.0 mm 0.00 in0.0 mm
03:49 AM 74.1°F23.4°C 71.0°F21.7°C 90% 1.1 mph SE1.8 kmh SE 4.0 mph6.4 kmh 29.99 in1015.6 mb 0.00 in0.0 mm 0.00 in0.0 mm 0.00 in0.0 mm
03:54 AM 74.0°F23.3°C 70.9°F21.6°C 90% 1.8 mph SW2.9 kmh SW 4.0 mph6.4 kmh 30.00 in1015.9 mb 0.00 in0.0 mm 0.00 in0.0 mm 0.00 in0.0 mm
03:59 AM 73.9°F23.3°C 70.8°F21.6°C 90% 1.1 mph S1.8 kmh S 4.0 mph6.4 kmh 30.00 in1015.9 mb 0.00 in0.0 mm 0.00 in0.0 mm 0.00 in0.0 mm
04:04 AM 73.7°F23.2°C 70.9°F21.6°C 91% Calm Calm 3.0 mph4.8 kmh 30.00 in1015.9 mb 0.00 in0.0 mm 0.00 in0.0 mm 0.00 in0.0 mm
04:09 AM 73.5°F23.1°C 70.7°F21.5°C 91% 1.0 mph S1.6 kmh S 3.0 mph4.8 kmh 30.00 in1015.9 mb 0.00 in0.0 mm 0.00 in0.0 mm 0.00 in0.0 mm
04:14 AM 73.3°F22.9°C 70.5°F21.4°C 91% 1.3 mph S2.1 kmh S 3.0 mph4.8 kmh 30.00 in1015.9 mb 0.00 in0.0 mm 0.00 in0.0 mm 0.00 in0.0 mm
04:19 AM 73.1°F22.8°C 70.6°F21.4°C 92% 2.0 mph S3.2 kmh S 4.0 mph6.4 kmh 30.00 in1015.9 mb 0.00 in0.0 mm 0.00 in0.0 mm 0.00 in0.0 mm
04:24 AM 73.0°F22.8°C 70.5°F21.4°C 92% 1.0 mph SSE1.6 kmh SSE 4.0 mph6.4 kmh 30.00 in1015.9 mb 0.00 in0.0 mm 0.00 in0.0 mm 0.00 in0.0 mm
04:29 AM 72.9°F22.7°C 70.4°F21.3°C 92% 1.0 mph SSW1.6 kmh SSW 4.0 mph6.4 kmh 30.00 in1015.9 mb 0.00 in0.0 mm 0.00 in0.0 mm 0.00 in0.0 mm
04:34 AM 72.8°F22.7°C 70.3°F21.3°C 92% 1.2 mph SSE1.9 kmh SSE 4.0 mph6.4 kmh 30.00 in1015.9 mb 0.00 in0.0 mm 0.00 in0.0 mm 0.00 in0.0 mm
04:39 AM 72.7°F22.6°C 70.2°F21.2°C 92% 1.0 mph SSE1.6 kmh SSE 3.0 mph4.8 kmh 30.00 in1015.9 mb 0.00 in0.0 mm 0.00 in0.0 mm 0.00 in0.0 mm
04:44 AM 72.7°F22.6°C 70.2°F21.2°C 92% 2.3 mph SW3.7 kmh SW 5.0 mph8.0 kmh 30.00 in1015.9 mb 0.00 in0.0 mm 0.00 in0.0 mm 0.00 in0.0 mm
04:49 AM 72.5°F22.5°C 70.0°F21.1°C 92% 1.0 mph SE1.6 kmh SE 5.0 mph8.0 kmh 30.00 in1015.9 mb 0.00 in0.0 mm 0.00 in0.0 mm 0.00 in0.0 mm
04:54 AM 72.4°F22.4°C 69.9°F21.1°C 92% 1.0 mph SE1.6 kmh SE 5.0 mph8.0 kmh 30.00 in1015.9 mb 0.00 in0.0 mm 0.00 in0.0 mm 0.00 in0.0 mm
04:59 AM 72.3°F22.4°C 69.8°F21.0°C 92% Calm Calm 5.0 mph8.0 kmh 30.00 in1015.9 mb 0.00 in0.0 mm 0.00 in0.0 mm 0.00 in0.0 mm
05:04 AM 72.2°F22.3°C 70.0°F21.1°C 93% 1.8 mph SSW2.9 kmh SSW 4.0 mph6.4 kmh 30.00 in1015.9 mb 0.00 in0.0 mm 0.00 in0.0 mm 0.00 in0.0 mm
05:09 AM 72.1°F22.3°C 69.9°F21.1°C 93% 1.8 mph SSW2.9 kmh SSW 4.0 mph6.4 kmh 30.00 in1015.9 mb 0.00 in0.0 mm 0.00 in0.0 mm 0.00 in0.0 mm
05:14 AM 72.1°F22.3°C 70.0°F21.1°C 93% 1.6 mph SW2.6 kmh SW 5.0 mph8.0 kmh 30.00 in1015.9 mb 0.00 in0.0 mm 0.00 in0.0 mm 0.00 in0.0 mm
05:19 AM 72.0°F22.2°C 69.8°F21.0°C 93% 1.0 mph SW1.6 kmh SW 5.0 mph8.0 kmh 30.00 in1015.9 mb 0.00 in0.0 mm 0.00 in0.0 mm 0.00 in0.0 mm
05:24 AM 72.0°F22.2°C 69.8°F21.0°C 93% 1.5 mph SW2.4 kmh SW 5.0 mph8.0 kmh 30.00 in1015.9 mb 0.00 in0.0 mm 0.00 in0.0 mm 0.00 in0.0 mm
05:29 AM 72.0°F22.2°C 69.8°F21.0°C 93% 2.1 mph SW3.4 kmh SW 5.0 mph8.0 kmh 30.00 in1015.9 mb 0.00 in0.0 mm 0.00 in0.0 mm 0.00 in0.0 mm
05:34 AM 72.0°F22.2°C 69.8°F21.0°C 93% 1.5 mph SW2.4 kmh SW 4.0 mph6.4 kmh 30.00 in1015.9 mb 0.00 in0.0 mm 0.00 in0.0 mm 0.00 in0.0 mm
05:39 AM 72.0°F22.2°C 70.1°F21.2°C 94% 1.8 mph SSW2.9 kmh SSW 5.0 mph8.0 kmh 30.00 in1015.9 mb 0.00 in0.0 mm 0.00 in0.0 mm 0.00 in0.0 mm
05:44 AM 72.1°F22.3°C 69.9°F21.1°C 93% 3.5 mph SW5.6 kmh SW 9.0 mph14.5 kmh 30.00 in1015.9 mb 0.00 in0.0 mm 0.00 in0.0 mm 0.00 in0.0 mm
05:49 AM 72.2°F22.3°C 70.0°F21.1°C 93% 1.1 mph SSW1.8 kmh SSW 9.0 mph14.5 kmh 30.00 in1015.9 mb 0.00 in0.0 mm 0.00 in0.0 mm 0.00 in0.0 mm
05:53 AM 72.2°F22.3°C 70.0°F21.1°C 93% 1.1 mph WSW1.8 kmh WSW 9.0 mph14.5 kmh 30.00 in1015.9 mb 0.00 in0.0 mm 0.00 in0.0 mm 0.00 in0.0 mm
05:58 AM 72.1°F22.3°C 69.9°F21.1°C 93% 1.6 mph SW2.6 kmh SW 9.0 mph14.5 kmh 30.00 in1015.9 mb 0.00 in0.0 mm 0.00 in0.0 mm 0.00 in0.0 mm
06:03 AM 72.1°F22.3°C 69.9°F21.1°C 93% 1.9 mph WSW3.1 kmh WSW 5.0 mph8.0 kmh 30.00 in1015.9 mb 0.00 in0.0 mm 0.00 in0.0 mm 0.00 in0.0 mm
06:08 AM 72.2°F22.3°C 70.0°F21.1°C 93% 1.8 mph SW2.9 kmh SW 6.0 mph9.7 kmh 30.00 in1015.9 mb 0.00 in0.0 mm 0.00 in0.0 mm 0.00 in0.0 mm
06:13 AM 72.2°F22.3°C 70.0°F21.1°C 93% 1.3 mph WSW2.1 kmh WSW 6.0 mph9.7 kmh 30.00 in1015.9 mb 0.00 in0.0 mm 0.00 in0.0 mm 0.00 in0.0 mm
06:18 AM 72.2°F22.3°C 70.0°F21.1°C 93% 1.7 mph WSW2.7 kmh WSW 6.0 mph9.7 kmh 29.99 in1015.6 mb 0.00 in0.0 mm 0.00 in0.0 mm 0.00 in0.0 mm
06:23 AM 72.1°F22.3°C 70.2°F21.2°C 94% 1.2 mph WSW1.9 kmh WSW 6.0 mph9.7 kmh 30.00 in1015.9 mb 0.00 in0.0 mm 0.00 in0.0 mm 0.00 in0.0 mm
06:28 AM 72.1°F22.3°C 70.3°F21.3°C 94% 1.6 mph SW2.6 kmh SW 4.0 mph6.4 kmh 30.00 in1015.9 mb 0.00 in0.0 mm 0.00 in0.0 mm 0.00 in0.0 mm
06:33 AM 72.1°F22.3°C 70.3°F21.3°C 94% 1.7 mph SW2.7 kmh SW 4.0 mph6.4 kmh 30.00 in1015.9 mb 0.00 in0.0 mm 0.00 in0.0 mm 0.00 in0.0 mm
06:38 AM 72.0°F22.2°C 70.2°F21.2°C 94% 1.1 mph WSW1.8 kmh WSW 4.0 mph6.4 kmh 30.00 in1015.9 mb 0.00 in0.0 mm 0.00 in0.0 mm 0.00 in0.0 mm
06:43 AM 72.0°F22.2°C 70.1°F21.2°C 94% 1.8 mph SW2.9 kmh SW 4.0 mph6.4 kmh 30.00 in1015.9 mb 0.00 in0.0 mm 0.00 in0.0 mm 0.00 in0.0 mm
06:48 AM 72.0°F22.2°C 70.1°F21.2°C 94% 1.4 mph SW2.3 kmh SW 4.0 mph6.4 kmh 30.00 in1015.9 mb 0.00 in0.0 mm 0.00 in0.0 mm 0.00 in0.0 mm
06:53 AM 72.0°F22.2°C 70.1°F21.2°C 94% 1.0 mph SW1.6 kmh SW 4.0 mph6.4 kmh 30.00 in1015.9 mb 0.00 in0.0 mm 0.00 in0.0 mm 0.00 in0.0 mm
06:58 AM 71.9°F22.2°C 70.0°F21.1°C 94% 1.6 mph SW2.6 kmh SW 4.0 mph6.4 kmh 30.01 in1016.3 mb 0.00 in0.0 mm 0.00 in0.0 mm 0.00 in0.0 mm
07:03 AM 71.9°F22.2°C 70.0°F21.1°C 94% 1.7 mph SW2.7 kmh SW 3.0 mph4.8 kmh 30.01 in1016.3 mb 0.00 in0.0 mm 0.00 in0.0 mm 0.00 in0.0 mm
07:08 AM 71.8°F22.1°C 69.9°F21.1°C 94% 1.8 mph SW2.9 kmh SW 4.0 mph6.4 kmh 30.01 in1016.3 mb 0.00 in0.0 mm 0.00 in0.0 mm 0.00 in0.0 mm
07:13 AM 72.0°F22.2°C 70.1°F21.2°C 94% 1.1 mph SW1.8 kmh SW 4.0 mph6.4 kmh 30.01 in1016.3 mb 0.00 in0.0 mm 0.00 in0.0 mm 0.00 in0.0 mm
07:18 AM 72.3°F22.4°C 70.5°F21.4°C 94% 1.2 mph WSW1.9 kmh WSW 4.0 mph6.4 kmh 30.01 in1016.3 mb 0.00 in0.0 mm 0.00 in0.0 mm 0.00 in0.0 mm
07:23 AM 72.6°F22.6°C 70.8°F21.6°C 94% 1.0 mph SW1.6 kmh SW 4.0 mph6.4 kmh 30.01 in1016.3 mb 0.00 in0.0 mm 0.00 in0.0 mm 0.00 in0.0 mm
07:28 AM 72.9°F22.7°C 71.1°F21.7°C 94% 1.4 mph WSW2.3 kmh WSW 2.0 mph3.2 kmh 30.02 in1016.6 mb 0.00 in0.0 mm 0.00 in0.0 mm 0.00 in0.0 mm
07:33 AM 73.4°F23.0°C 71.3°F21.8°C 93% Calm Calm 2.0 mph3.2 kmh 30.02 in1016.6 mb 0.00 in0.0 mm 0.00 in0.0 mm 0.00 in0.0 mm
07:38 AM 73.9°F23.3°C 71.4°F21.9°C 92% Calm Calm 3.0 mph4.8 kmh 30.02 in1016.6 mb 0.00 in0.0 mm 0.00 in0.0 mm 0.00 in0.0 mm
07:43 AM 74.0°F23.3°C 71.2°F21.8°C 91% 1.0 mph SW1.6 kmh SW 3.0 mph4.8 kmh 30.02 in1016.6 mb 0.00 in0.0 mm 0.00 in0.0 mm 0.00 in0.0 mm
07:48 AM 74.0°F23.3°C 71.2°F21.8°C 91% Calm Calm 3.0 mph4.8 kmh 30.02 in1016.6 mb 0.00 in0.0 mm 0.00 in0.0 mm 0.00 in0.0 mm
07:53 AM 74.1°F23.4°C 71.3°F21.8°C 91% 1.4 mph SW2.3 kmh SW 3.0 mph4.8 kmh 30.03 in1016.9 mb 0.00 in0.0 mm 0.00 in0.0 mm 0.00 in0.0 mm
07:58 AM 74.3°F23.5°C 71.5°F21.9°C 91% 1.3 mph SW2.1 kmh SW 3.0 mph4.8 kmh 30.03 in1016.9 mb 0.00 in0.0 mm 0.00 in0.0 mm 0.00 in0.0 mm
08:03 AM 74.5°F23.6°C 71.7°F22.1°C 91% 1.8 mph WSW2.9 kmh WSW 4.0 mph6.4 kmh 30.03 in1016.9 mb 0.00 in0.0 mm 0.00 in0.0 mm 0.00 in0.0 mm
08:08 AM 74.5°F23.6°C 71.7°F22.1°C 91% 1.3 mph SW2.1 kmh SW 5.0 mph8.0 kmh 30.03 in1016.9 mb 0.00 in0.0 mm 0.00 in0.0 mm 0.00 in0.0 mm
08:13 AM 74.5°F23.6°C 71.7°F22.1°C 91% 1.0 mph W1.6 kmh W 5.0 mph8.0 kmh 30.03 in1016.9 mb 0.00 in0.0 mm 0.00 in0.0 mm 0.00 in0.0 mm
08:18 AM 74.8°F23.8°C 72.0°F22.2°C 91% 1.8 mph WSW2.9 kmh WSW 5.0 mph8.0 kmh 30.03 in1016.9 mb 0.00 in0.0 mm 0.00 in0.0 mm 0.00 in0.0 mm
08:23 AM 75.1°F23.9°C 72.3°F22.4°C 91% 2.3 mph W3.7 kmh W 5.0 mph8.0 kmh 30.04 in1017.3 mb 0.00 in0.0 mm 0.00 in0.0 mm 0.00 in0.0 mm
08:28 AM 75.5°F24.2°C 72.4°F22.4°C 90% 3.5 mph WSW5.6 kmh WSW 7.0 mph11.3 kmh 30.03 in1016.9 mb 0.00 in0.0 mm 0.00 in0.0 mm 0.00 in0.0 mm
08:33 AM 76.0°F24.4°C 72.5°F22.5°C 89% 3.0 mph WSW4.8 kmh WSW 7.0 mph11.3 kmh 30.03 in1016.9 mb 0.00 in0.0 mm 0.00 in0.0 mm 0.00 in0.0 mm
08:38 AM 76.3°F24.6°C 72.8°F22.7°C 89% 1.4 mph SW2.3 kmh SW 7.0 mph11.3 kmh 30.04 in1017.3 mb 0.00 in0.0 mm 0.00 in0.0 mm 0.00 in0.0 mm
08:43 AM 76.3°F24.6°C 72.5°F22.5°C 88% 1.5 mph WSW2.4 kmh WSW 7.0 mph11.3 kmh 30.04 in1017.3 mb 0.00 in0.0 mm 0.00 in0.0 mm 0.00 in0.0 mm
08:48 AM 76.2°F24.6°C 72.7°F22.6°C 89% 1.4 mph SW2.3 kmh SW 7.0 mph11.3 kmh 30.03 in1016.9 mb 0.00 in0.0 mm 0.00 in0.0 mm 0.00 in0.0 mm
08:53 AM 76.4°F24.7°C 72.9°F22.7°C 89% 2.2 mph WSW3.5 kmh WSW 7.0 mph11.3 kmh 30.04 in1017.3 mb 0.00 in0.0 mm 0.00 in0.0 mm 0.00 in0.0 mm
08:58 AM 76.5°F24.7°C 73.0°F22.8°C 89% 2.2 mph SW3.5 kmh SW 8.0 mph12.9 kmh 30.04 in1017.3 mb 0.00 in0.0 mm 0.00 in0.0 mm 0.00 in0.0 mm
09:03 AM 76.8°F24.9°C 73.3°F22.9°C 89% 2.6 mph SW4.2 kmh SW 8.0 mph12.9 kmh 30.04 in1017.3 mb 0.00 in0.0 mm 0.00 in0.0 mm 0.00 in0.0 mm
09:08 AM 77.2°F25.1°C 73.4°F23.0°C 88% 1.7 mph WSW2.7 kmh WSW 8.0 mph12.9 kmh 30.04 in1017.3 mb 0.00 in0.0 mm 0.00 in0.0 mm 0.00 in0.0 mm
09:13 AM 77.7°F25.4°C 73.9°F23.3°C 88% 1.5 mph SW2.4 kmh SW 5.0 mph8.0 kmh 30.04 in1017.3 mb 0.00 in0.0 mm 0.00 in0.0 mm 0.00 in0.0 mm
09:18 AM 78.1°F25.6°C 73.6°F23.1°C 86% 2.5 mph SW4.0 kmh SW 5.0 mph8.0 kmh 30.03 in1016.9 mb 0.00 in0.0 mm 0.00 in0.0 mm 0.00 in0.0 mm
09:23 AM 78.7°F25.9°C 74.2°F23.4°C 86% 2.2 mph WSW3.5 kmh WSW 5.0 mph8.0 kmh 30.03 in1016.9 mb 0.00 in0.0 mm 0.00 in0.0 mm 0.00 in0.0 mm
09:28 AM 79.2°F26.2°C 74.3°F23.5°C 85% 1.3 mph WSW2.1 kmh WSW 5.0 mph8.0 kmh 30.03 in1016.9 mb 0.00 in0.0 mm 0.00 in0.0 mm 0.00 in0.0 mm
09:33 AM 79.8°F26.6°C 73.9°F23.3°C 82% 3.8 mph WSW6.1 kmh WSW 6.0 mph9.7 kmh 30.03 in1016.9 mb 0.00 in0.0 mm 0.00 in0.0 mm 0.00 in0.0 mm
09:38 AM 79.9°F26.6°C 74.3°F23.5°C 83% 2.7 mph WSW4.3 kmh WSW 6.0 mph9.7 kmh 30.03 in1016.9 mb 0.00 in0.0 mm 0.00 in0.0 mm 0.00 in0.0 mm
09:43 AM 80.5°F26.9°C 74.9°F23.8°C 83% 1.0 mph SW1.6 kmh SW 6.0 mph9.7 kmh 30.03 in1016.9 mb 0.00 in0.0 mm 0.00 in0.0 mm 0.00 in0.0 mm
09:48 AM 81.4°F27.4°C 75.5°F24.2°C 82% Calm Calm 6.0 mph9.7 kmh 30.03 in1016.9 mb 0.00 in0.0 mm 0.00 in0.0 mm 0.00 in0.0 mm
09:53 AM 81.6°F27.6°C 74.6°F23.7°C 79% 1.7 mph WSW2.7 kmh WSW 5.0 mph8.0 kmh 30.03 in1016.9 mb 0.00 in0.0 mm 0.00 in0.0 mm 0.00 in0.0 mm
09:58 AM 81.6°F27.6°C 74.6°F23.7°C 79% 1.0 mph SW1.6 kmh SW 4.0 mph6.4 kmh 30.03 in1016.9 mb 0.00 in0.0 mm 0.00 in0.0 mm 0.00 in0.0 mm
10:03 AM 81.8°F27.7°C 74.4°F23.6°C 78% 2.0 mph WNW3.2 kmh WNW 5.0 mph8.0 kmh 30.02 in1016.6 mb 0.00 in0.0 mm 0.00 in0.0 mm 0.00 in0.0 mm
10:08 AM 81.8°F27.7°C 74.8°F23.8°C 79% 1.3 mph WSW2.1 kmh WSW 5.0 mph8.0 kmh 30.02 in1016.6 mb 0.00 in0.0 mm 0.00 in0.0 mm 0.00 in0.0 mm
10:13 AM 82.8°F28.2°C 75.4°F24.1°C 78% 1.0 mph WSW1.6 kmh WSW 5.0 mph8.0 kmh 30.02 in1016.6 mb 0.00 in0.0 mm 0.00 in0.0 mm 0.00 in0.0 mm
10:18 AM 83.5°F28.6°C 75.3°F24.1°C 76% 1.1 mph SW1.8 kmh SW 5.0 mph8.0 kmh 30.02 in1016.6 mb 0.00 in0.0 mm 0.00 in0.0 mm 0.00 in0.0 mm
10:23 AM 82.9°F28.3°C 74.3°F23.5°C 75% 2.9 mph W4.7 kmh W 6.0 mph9.7 kmh 30.02 in1016.6 mb 0.00 in0.0 mm 0.00 in0.0 mm 0.00 in0.0 mm
10:28 AM 82.8°F28.2°C 74.8°F23.8°C 77% 1.5 mph WSW2.4 kmh WSW 6.0 mph9.7 kmh 30.03 in1016.9 mb 0.00 in0.0 mm 0.00 in0.0 mm 0.00 in0.0 mm
10:33 AM 83.4°F28.6°C 74.8°F23.8°C 75% 2.3 mph WSW3.7 kmh WSW 6.0 mph9.7 kmh 30.03 in1016.9 mb 0.00 in0.0 mm 0.00 in0.0 mm 0.00 in0.0 mm
10:38 AM 83.9°F28.8°C 74.1°F23.4°C 72% 3.4 mph SW5.5 kmh SW 8.0 mph12.9 kmh 30.03 in1016.9 mb 0.00 in0.0 mm 0.00 in0.0 mm 0.00 in0.0 mm
10:43 AM 83.4°F28.6°C 73.8°F23.2°C 73% 2.6 mph W4.2 kmh W 8.0 mph12.9 kmh 30.03 in1016.9 mb 0.00 in0.0 mm 0.00 in0.0 mm 0.00 in0.0 mm
10:48 AM 83.2°F28.4°C 73.9°F23.3°C 73% 2.6 mph W4.2 kmh W 8.0 mph12.9 kmh 30.03 in1016.9 mb 0.00 in0.0 mm 0.00 in0.0 mm 0.00 in0.0 mm
10:52 AM 83.4°F28.6°C 74.8°F23.8°C 75% 1.3 mph SSW2.1 kmh SSW 8.0 mph12.9 kmh 30.02 in1016.6 mb 0.00 in0.0 mm 0.00 in0.0 mm 0.00 in0.0 mm
10:57 AM 84.5°F29.2°C 75.5°F24.2°C 74% 1.8 mph SW2.9 kmh SW 7.0 mph11.3 kmh 30.03 in1016.9 mb 0.00 in0.0 mm 0.00 in0.0 mm 0.00 in0.0 mm
11:02 AM 84.4°F29.1°C 74.6°F23.7°C 72% 1.9 mph S3.1 kmh S 7.0 mph11.3 kmh 30.03 in1016.9 mb 0.00 in0.0 mm 0.00 in0.0 mm 0.00 in0.0 mm
11:07 AM 84.8°F29.3°C 74.2°F23.4°C 70% 2.9 mph WSW4.7 kmh WSW 7.0 mph11.3 kmh 30.02 in1016.6 mb 0.00 in0.0 mm 0.00 in0.0 mm 0.00 in0.0 mm
11:12 AM 84.8°F29.3°C 74.3°F23.5°C 71% 1.9 mph W3.1 kmh W 7.0 mph11.3 kmh 30.02 in1016.6 mb 0.00 in0.0 mm 0.00 in0.0 mm 0.00 in0.0 mm
11:17 AM 84.8°F29.3°C 74.6°F23.7°C 71% 1.4 mph WSW2.3 kmh WSW 7.0 mph11.3 kmh 30.03 in1016.9 mb 0.00 in0.0 mm 0.00 in0.0 mm 0.00 in0.0 mm
11:22 AM 84.7°F29.3°C 74.1°F23.4°C 70% 2.9 mph SW4.7 kmh SW 7.0 mph11.3 kmh 30.02 in1016.6 mb 0.00 in0.0 mm 0.00 in0.0 mm 0.00 in0.0 mm
11:27 AM 84.2°F29.0°C 73.2°F22.9°C 69% 2.1 mph WSW3.4 kmh WSW 7.0 mph11.3 kmh 30.02 in1016.6 mb 0.00 in0.0 mm 0.00 in0.0 mm 0.00 in0.0 mm
11:32 AM 84.4°F29.1°C 73.1°F22.8°C 69% 2.3 mph SW3.7 kmh SW 7.0 mph11.3 kmh 30.02 in1016.6 mb 0.00 in0.0 mm 0.00 in0.0 mm 0.00 in0.0 mm
11:37 AM 84.9°F29.4°C 74.3°F23.5°C 70% 1.2 mph SW1.9 kmh SW 6.0 mph9.7 kmh 30.02 in1016.6 mb 0.00 in0.0 mm 0.00 in0.0 mm 0.00 in0.0 mm
11:42 AM 85.4°F29.7°C 73.9°F23.3°C 68% 2.9 mph SW4.7 kmh SW 6.0 mph9.7 kmh 30.02 in1016.6 mb 0.00 in0.0 mm 0.00 in0.0 mm 0.00 in0.0 mm
11:47 AM 85.3°F29.6°C 73.8°F23.2°C 68% 2.8 mph SW4.5 kmh SW 6.0 mph9.7 kmh 30.02 in1016.6 mb 0.00 in0.0 mm 0.00 in0.0 mm 0.00 in0.0 mm
11:52 AM 85.8°F29.9°C 74.3°F23.5°C 68% 2.6 mph SW4.2 kmh SW 6.0 mph9.7 kmh 30.02 in1016.6 mb 0.00 in0.0 mm 0.00 in0.0 mm 0.00 in0.0 mm
11:57 AM 86.1°F30.1°C 73.2°F22.9°C 65% 3.5 mph SW5.6 kmh SW 7.0 mph11.3 kmh 30.01 in1016.3 mb 0.00 in0.0 mm 0.00 in0.0 mm 0.00 in0.0 mm
12:02 PM 86.7°F30.4°C 74.9°F23.8°C 68% 1.8 mph S2.9 kmh S 7.0 mph11.3 kmh 30.01 in1016.3 mb 0.00 in0.0 mm 0.00 in0.0 mm 0.00 in0.0 mm
12:07 PM 87.2°F30.7°C 74.3°F23.5°C 65% 3.2 mph SW5.1 kmh SW 7.0 mph11.3 kmh 30.01 in1016.3 mb 0.00 in0.0 mm 0.00 in0.0 mm 0.00 in0.0 mm
12:12 PM 87.6°F30.9°C 74.7°F23.7°C 65% 2.6 mph SSW4.2 kmh SSW 7.0 mph11.3 kmh 30.01 in1016.3 mb 0.00 in0.0 mm 0.00 in0.0 mm 0.00 in0.0 mm
12:17 PM 87.9°F31.1°C 74.0°F23.3°C 63% 1.9 mph SSW3.1 kmh SSW 7.0 mph11.3 kmh 30.01 in1016.3 mb 0.00 in0.0 mm 0.00 in0.0 mm 0.00 in0.0 mm
12:22 PM 88.1°F31.2°C 74.2°F23.4°C 63% 2.1 mph SW3.4 kmh SW 7.0 mph11.3 kmh 30.00 in1015.9 mb 0.00 in0.0 mm 0.00 in0.0 mm 0.00 in0.0 mm
12:27 PM 88.6°F31.4°C 75.2°F24.0°C 64% 2.0 mph S3.2 kmh S 6.0 mph9.7 kmh 30.00 in1015.9 mb 0.00 in0.0 mm 0.00 in0.0 mm 0.00 in0.0 mm
12:32 PM 88.8°F31.6°C 72.9°F22.7°C 59% 3.2 mph S5.1 kmh S 6.0 mph9.7 kmh 30.00 in1015.9 mb 0.00 in0.0 mm 0.00 in0.0 mm 0.00 in0.0 mm
12:37 PM 88.7°F31.5°C 73.3°F22.9°C 60% 1.8 mph SSE2.9 kmh SSE 6.0 mph9.7 kmh 30.00 in1015.9 mb 0.00 in0.0 mm 0.00 in0.0 mm 0.00 in0.0 mm
12:42 PM 87.6°F30.9°C 73.0°F22.8°C 62% 2.0 mph SW3.2 kmh SW 8.0 mph12.9 kmh 30.00 in1015.9 mb 0.00 in0.0 mm 0.00 in0.0 mm 0.00 in0.0 mm
12:47 PM 87.0°F30.6°C 72.7°F22.6°C 62% 1.4 mph SW2.3 kmh SW 8.0 mph12.9 kmh 30.00 in1015.9 mb 0.00 in0.0 mm 0.00 in0.0 mm 0.00 in0.0 mm
12:52 PM 86.2°F30.1°C 72.4°F22.4°C 63% 2.9 mph WSW4.7 kmh WSW 9.0 mph14.5 kmh 30.00 in1015.9 mb 0.00 in0.0 mm 0.00 in0.0 mm 0.00 in0.0 mm
12:57 PM 87.0°F30.6°C 73.6°F23.1°C 64% 1.8 mph SW2.9 kmh SW 9.0 mph14.5 kmh 30.00 in1015.9 mb 0.00 in0.0 mm 0.00 in0.0 mm 0.00 in0.0 mm
01:02 PM 87.6°F30.9°C 71.3°F21.8°C 58% 3.0 mph SW4.8 kmh SW 9.0 mph14.5 kmh 29.99 in1015.6 mb 0.00 in0.0 mm 0.00 in0.0 mm 0.00 in0.0 mm
01:07 PM 88.1°F31.2°C 72.2°F22.3°C 59% 2.5 mph S4.0 kmh S 9.0 mph14.5 kmh 29.99 in1015.6 mb 0.00 in0.0 mm 0.00 in0.0 mm 0.00 in0.0 mm
01:12 PM 87.9°F31.1°C 72.1°F22.3°C 59% 2.3 mph WSW3.7 kmh WSW 8.0 mph12.9 kmh 29.99 in1015.6 mb 0.00 in0.0 mm 0.00 in0.0 mm 0.00 in0.0 mm
01:17 PM 88.2°F31.2°C 73.3°F22.9°C 61% 1.7 mph W2.7 kmh W 8.0 mph12.9 kmh 29.99 in1015.6 mb 0.00 in0.0 mm 0.00 in0.0 mm 0.00 in0.0 mm
01:22 PM 88.1°F31.2°C 72.0°F22.2°C 59% Calm Calm 7.0 mph11.3 kmh 29.99 in1015.6 mb 0.00 in0.0 mm 0.00 in0.0 mm 0.00 in0.0 mm
01:27 PM 88.4°F31.3°C 72.2°F22.3°C 59% 2.7 mph SW4.3 kmh SW 7.0 mph11.3 kmh 29.99 in1015.6 mb 0.00 in0.0 mm 0.00 in0.0 mm 0.00 in0.0 mm
01:32 PM 88.7°F31.5°C 72.3°F22.4°C 58% 2.1 mph SW3.4 kmh SW 7.0 mph11.3 kmh 29.99 in1015.6 mb 0.00 in0.0 mm 0.00 in0.0 mm 0.00 in0.0 mm
01:37 PM 88.7°F31.5°C 71.8°F22.1°C 57% 2.6 mph WSW4.2 kmh WSW 7.0 mph11.3 kmh 29.99 in1015.6 mb 0.00 in0.0 mm 0.00 in0.0 mm 0.00 in0.0 mm
01:42 PM 89.1°F31.7°C 73.7°F23.2°C 60% 1.7 mph SE2.7 kmh SE 7.0 mph11.3 kmh 29.99 in1015.6 mb 0.00 in0.0 mm 0.00 in0.0 mm 0.00 in0.0 mm
01:47 PM 89.1°F31.7°C 71.6°F22.0°C 56% 2.2 mph SW3.5 kmh SW 7.0 mph11.3 kmh 29.98 in1015.2 mb 0.00 in0.0 mm 0.00 in0.0 mm 0.00 in0.0 mm
01:52 PM 89.4°F31.9°C 73.0°F22.8°C 58% 1.2 mph SSW1.9 kmh SSW 7.0 mph11.3 kmh 29.98 in1015.2 mb 0.00 in0.0 mm 0.00 in0.0 mm 0.00 in0.0 mm
01:57 PM 89.1°F31.7°C 71.6°F22.0°C 56% 2.1 mph SW3.4 kmh SW 7.0 mph11.3 kmh 29.98 in1015.2 mb 0.00 in0.0 mm 0.00 in0.0 mm 0.00 in0.0 mm
02:02 PM 89.2°F31.8°C 71.2°F21.8°C 55% 2.4 mph SW3.9 kmh SW 7.0 mph11.3 kmh 29.98 in1015.2 mb 0.00 in0.0 mm 0.00 in0.0 mm 0.00 in0.0 mm
02:07 PM 89.1°F31.7°C 71.4°F21.9°C 56% 1.2 mph SSW1.9 kmh SSW 7.0 mph11.3 kmh 29.98 in1015.2 mb 0.00 in0.0 mm 0.00 in0.0 mm 0.00 in0.0 mm
02:12 PM 89.0°F31.7°C 72.1°F22.3°C 57% 2.9 mph WSW4.7 kmh WSW 9.0 mph14.5 kmh 29.97 in1014.9 mb 0.00 in0.0 mm 0.00 in0.0 mm 0.00 in0.0 mm
02:17 PM 89.6°F32.0°C 72.6°F22.6°C 57% 1.4 mph SW2.3 kmh SW 9.0 mph14.5 kmh 29.97 in1014.9 mb 0.00 in0.0 mm 0.00 in0.0 mm 0.00 in0.0 mm
02:22 PM 90.0°F32.2°C 71.7°F22.1°C 55% 1.8 mph SE2.9 kmh SE 9.0 mph14.5 kmh 29.97 in1014.9 mb 0.00 in0.0 mm 0.00 in0.0 mm 0.00 in0.0 mm
02:27 PM 89.7°F32.1°C 72.2°F22.3°C 56% 1.4 mph S2.3 kmh S 9.0 mph14.5 kmh 29.97 in1014.9 mb 0.00 in0.0 mm 0.00 in0.0 mm 0.00 in0.0 mm
02:32 PM 89.5°F31.9°C 73.1°F22.8°C 58% Calm Calm 5.0 mph8.0 kmh 29.96 in1014.6 mb 0.00 in0.0 mm 0.00 in0.0 mm 0.00 in0.0 mm
02:37 PM 89.4°F31.9°C 71.9°F22.2°C 56% 2.5 mph SSW4.0 kmh SSW 5.0 mph8.0 kmh 29.96 in1014.6 mb 0.00 in0.0 mm 0.00 in0.0 mm 0.00 in0.0 mm
02:42 PM 90.0°F32.2°C 71.7°F22.1°C 55% 1.0 mph S1.6 kmh S 4.0 mph6.4 kmh 29.96 in1014.6 mb 0.00 in0.0 mm 0.00 in0.0 mm 0.00 in0.0 mm
02:47 PM 90.1°F32.3°C 73.1°F22.8°C 57% 1.6 mph SE2.6 kmh SE 5.0 mph8.0 kmh 29.96 in1014.6 mb 0.00 in0.0 mm 0.00 in0.0 mm 0.00 in0.0 mm
02:52 PM 89.5°F31.9°C 71.5°F21.9°C 55% 1.2 mph SW1.9 kmh SW 5.0 mph8.0 kmh 29.96 in1014.6 mb 0.00 in0.0 mm 0.00 in0.0 mm 0.00 in0.0 mm
02:57 PM 89.4°F31.9°C 72.4°F22.4°C 57% 1.3 mph SW2.1 kmh SW 5.0 mph8.0 kmh 29.96 in1014.6 mb 0.00 in0.0 mm 0.00 in0.0 mm 0.00 in0.0 mm
03:02 PM 89.3°F31.8°C 72.9°F22.7°C 58% Calm Calm 5.0 mph8.0 kmh 29.95 in1014.2 mb 0.00 in0.0 mm 0.00 in0.0 mm 0.00 in0.0 mm
03:07 PM 89.6°F32.0°C 73.1°F22.8°C 58% 2.0 mph SSW3.2 kmh SSW 5.0 mph8.0 kmh 29.95 in1014.2 mb 0.00 in0.0 mm 0.00 in0.0 mm 0.00 in0.0 mm
03:12 PM 90.2°F32.3°C 72.6°F22.6°C 56% 2.2 mph SW3.5 kmh SW 5.0 mph8.0 kmh 29.95 in1014.2 mb 0.00 in0.0 mm 0.00 in0.0 mm 0.00 in0.0 mm
03:17 PM 90.6°F32.6°C 71.7°F22.1°C 54% 1.0 mph SE1.6 kmh SE 5.0 mph8.0 kmh 29.95 in1014.2 mb 0.00 in0.0 mm 0.00 in0.0 mm 0.00 in0.0 mm
03:22 PM 90.8°F32.7°C 70.7°F21.5°C 52% 3.1 mph SW5.0 kmh SW 7.0 mph11.3 kmh 29.95 in1014.2 mb 0.00 in0.0 mm 0.00 in0.0 mm 0.00 in0.0 mm
03:27 PM 90.8°F32.7°C 72.1°F22.3°C 54% 2.6 mph SE4.2 kmh SE 7.0 mph11.3 kmh 29.94 in1013.9 mb 0.00 in0.0 mm 0.00 in0.0 mm 0.00 in0.0 mm
03:32 PM 90.6°F32.6°C 71.4°F21.9°C 53% 3.7 mph WSW6.0 kmh WSW 8.0 mph12.9 kmh 29.94 in1013.9 mb 0.00 in0.0 mm 0.00 in0.0 mm 0.00 in0.0 mm
03:37 PM 90.8°F32.7°C 71.5°F21.9°C 53% 2.4 mph SW3.9 kmh SW 8.0 mph12.9 kmh 29.94 in1013.9 mb 0.00 in0.0 mm 0.00 in0.0 mm 0.00 in0.0 mm
03:42 PM 91.5°F33.1°C 72.2°F22.3°C 53% 1.9 mph WSW3.1 kmh WSW 8.0 mph12.9 kmh 29.94 in1013.9 mb 0.00 in0.0 mm 0.00 in0.0 mm 0.00 in0.0 mm
03:48 PM 91.8°F33.2°C 71.9°F22.2°C 52% 2.1 mph SSE3.4 kmh SSE 8.0 mph12.9 kmh 29.93 in1013.5 mb 0.00 in0.0 mm 0.00 in0.0 mm 0.00 in0.0 mm
03:51 PM 91.2°F32.9°C 72.5°F22.5°C 54% 2.5 mph S4.0 kmh S 7.0 mph11.3 kmh 29.93 in1013.5 mb 0.00 in0.0 mm 0.00 in0.0 mm 0.00 in0.0 mm
03:56 PM 91.2°F32.9°C 72.2°F22.3°C 54% 1.6 mph SE2.6 kmh SE 7.0 mph11.3 kmh 29.93 in1013.5 mb 0.00 in0.0 mm 0.00 in0.0 mm 0.00 in0.0 mm
04:01 PM 91.4°F33.0°C 72.4°F22.4°C 54% 1.8 mph SE2.9 kmh SE 7.0 mph11.3 kmh 29.92 in1013.2 mb 0.00 in0.0 mm 0.00 in0.0 mm 0.00 in0.0 mm
04:06 PM 91.8°F33.2°C 72.2°F22.3°C 53% 2.5 mph S4.0 kmh S 7.0 mph11.3 kmh 29.92 in1013.2 mb 0.00 in0.0 mm 0.00 in0.0 mm 0.00 in0.0 mm
04:11 PM 91.3°F32.9°C 72.6°F22.6°C 54% 1.1 mph S1.8 kmh S 7.0 mph11.3 kmh 29.92 in1013.2 mb 0.00 in0.0 mm 0.00 in0.0 mm 0.00 in0.0 mm
04:16 PM 90.4°F32.4°C 71.2°F21.8°C 53% 2.2 mph S3.5 kmh S 7.0 mph11.3 kmh 29.92 in1013.2 mb 0.00 in0.0 mm 0.00 in0.0 mm 0.00 in0.0 mm
04:21 PM 89.8°F32.1°C 71.7°F22.1°C 55% 1.4 mph SE2.3 kmh SE 5.0 mph8.0 kmh 29.92 in1013.2 mb 0.00 in0.0 mm 0.00 in0.0 mm 0.00 in0.0 mm
04:27 PM 89.7°F32.1°C 72.7°F22.6°C 57% Calm Calm 5.0 mph8.0 kmh 29.92 in1013.2 mb 0.00 in0.0 mm 0.00 in0.0 mm 0.00 in0.0 mm
04:31 PM 90.4°F32.4°C 72.8°F22.7°C 56% 2.8 mph SSW4.5 kmh SSW 5.0 mph8.0 kmh 29.92 in1013.2 mb 0.00 in0.0 mm 0.00 in0.0 mm 0.00 in0.0 mm
04:37 PM 90.1°F32.3°C 71.5°F21.9°C 54% 3.7 mph WSW6.0 kmh WSW 8.0 mph12.9 kmh 29.92 in1013.2 mb 0.00 in0.0 mm 0.00 in0.0 mm 0.00 in0.0 mm
04:41 PM 89.9°F32.2°C 71.6°F22.0°C 55% 2.5 mph WSW4.0 kmh WSW 8.0 mph12.9 kmh 29.92 in1013.2 mb 0.00 in0.0 mm 0.00 in0.0 mm 0.00 in0.0 mm
04:47 PM 89.7°F32.1°C 72.2°F22.3°C 56% 1.6 mph SW2.6 kmh SW 8.0 mph12.9 kmh 29.91 in1012.9 mb 0.00 in0.0 mm 0.00 in0.0 mm 0.00 in0.0 mm
04:52 PM 89.3°F31.8°C 71.5°F21.9°C 56% 4.1 mph WSW6.6 kmh WSW 8.0 mph12.9 kmh 29.92 in1013.2 mb 0.00 in0.0 mm 0.00 in0.0 mm 0.00 in0.0 mm
04:57 PM 89.0°F31.7°C 71.0°F21.7°C 55% 3.0 mph WSW4.8 kmh WSW 9.0 mph14.5 kmh 29.92 in1013.2 mb 0.00 in0.0 mm 0.00 in0.0 mm 0.00 in0.0 mm
05:02 PM 88.6°F31.4°C 71.2°F21.8°C 56% 2.8 mph SW4.5 kmh SW 9.0 mph14.5 kmh 29.92 in1013.2 mb 0.00 in0.0 mm 0.00 in0.0 mm 0.00 in0.0 mm
05:07 PM 88.2°F31.2°C 71.3°F21.8°C 57% 2.2 mph WSW3.5 kmh WSW 9.0 mph14.5 kmh 29.92 in1013.2 mb 0.00 in0.0 mm 0.00 in0.0 mm 0.00 in0.0 mm
05:12 PM 88.0°F31.1°C 71.6°F22.0°C 58% 2.5 mph WSW4.0 kmh WSW 9.0 mph14.5 kmh 29.92 in1013.2 mb 0.00 in0.0 mm 0.00 in0.0 mm 0.00 in0.0 mm
05:17 PM 87.7°F30.9°C 71.1°F21.7°C 58% 2.4 mph WSW3.9 kmh WSW 8.0 mph12.9 kmh 29.92 in1013.2 mb 0.00 in0.0 mm 0.00 in0.0 mm 0.00 in0.0 mm
05:22 PM 87.2°F30.7°C 72.4°F22.4°C 61% 2.5 mph W4.0 kmh W 8.0 mph12.9 kmh 29.92 in1013.2 mb 0.00 in0.0 mm 0.00 in0.0 mm 0.00 in0.0 mm
05:27 PM 86.8°F30.4°C 71.5°F21.9°C 60% 2.1 mph WSW3.4 kmh WSW 8.0 mph12.9 kmh 29.92 in1013.2 mb 0.00 in0.0 mm 0.00 in0.0 mm 0.00 in0.0 mm
05:32 PM 86.5°F30.3°C 72.2°F22.3°C 62% 5.8 mph ESE9.3 kmh ESE 11.0 mph17.7 kmh 29.92 in1013.2 mb 0.00 in0.0 mm 0.00 in0.0 mm 0.00 in0.0 mm
05:37 PM 84.5°F29.2°C 71.3°F21.8°C 64% 2.1 mph SSW3.4 kmh SSW 14.0 mph22.5 kmh 29.92 in1013.2 mb 0.00 in0.0 mm 0.00 in0.0 mm 0.00 in0.0 mm
05:42 PM 83.8°F28.8°C 71.0°F21.7°C 65% 6.0 mph E9.7 kmh E 14.0 mph22.5 kmh 29.92 in1013.2 mb 0.00 in0.0 mm 0.00 in0.0 mm 0.00 in0.0 mm
05:47 PM 84.0°F28.9°C 70.5°F21.4°C 64% 3.6 mph E5.8 kmh E 14.0 mph22.5 kmh 29.92 in1013.2 mb 0.00 in0.0 mm 0.00 in0.0 mm 0.00 in0.0 mm
05:52 PM 83.4°F28.6°C 72.0°F22.2°C 68% 1.6 mph ESE2.6 kmh ESE 12.0 mph19.3 kmh 29.92 in1013.2 mb 0.00 in0.0 mm 0.00 in0.0 mm 0.00 in0.0 mm
05:57 PM 83.0°F28.3°C 72.0°F22.2°C 69% 1.8 mph ESE2.9 kmh ESE 12.0 mph19.3 kmh 29.92 in1013.2 mb 0.00 in0.0 mm 0.00 in0.0 mm 0.00 in0.0 mm
06:02 PM 82.5°F28.1°C 70.7°F21.5°C 67% 2.5 mph SE4.0 kmh SE 7.0 mph11.3 kmh 29.92 in1013.2 mb 0.00 in0.0 mm 0.00 in0.0 mm 0.00 in0.0 mm
06:07 PM 82.2°F27.9°C 71.0°F21.7°C 69% 3.1 mph ESE5.0 kmh ESE 5.0 mph8.0 kmh 29.92 in1013.2 mb 0.00 in0.0 mm 0.00 in0.0 mm 0.00 in0.0 mm
06:12 PM 81.9°F27.7°C 72.2°F22.3°C 72% 2.9 mph SE4.7 kmh SE 7.0 mph11.3 kmh 29.91 in1012.9 mb 0.00 in0.0 mm 0.00 in0.0 mm 0.00 in0.0 mm
06:17 PM 81.9°F27.7°C 72.6°F22.6°C 73% 3.0 mph ESE4.8 kmh ESE 7.0 mph11.3 kmh 29.91 in1012.9 mb 0.00 in0.0 mm 0.00 in0.0 mm 0.00 in0.0 mm
06:22 PM 82.0°F27.8°C 71.9°F22.2°C 71% 3.3 mph ESE5.3 kmh ESE 8.0 mph12.9 kmh 29.91 in1012.9 mb 0.00 in0.0 mm 0.00 in0.0 mm 0.00 in0.0 mm
06:27 PM 82.1°F27.8°C 72.0°F22.2°C 71% 2.9 mph SE4.7 kmh SE 8.0 mph12.9 kmh 29.91 in1012.9 mb 0.00 in0.0 mm 0.00 in0.0 mm 0.00 in0.0 mm
06:32 PM 82.0°F27.8°C 72.3°F22.4°C 72% 1.0 mph SE1.6 kmh SE 8.0 mph12.9 kmh 29.91 in1012.9 mb 0.00 in0.0 mm 0.00 in0.0 mm 0.00 in0.0 mm
06:37 PM 82.4°F28.0°C 72.3°F22.4°C 71% 1.0 mph ESE1.6 kmh ESE 7.0 mph11.3 kmh 29.90 in1012.5 mb 0.00 in0.0 mm 0.00 in0.0 mm 0.00 in0.0 mm
06:42 PM 82.9°F28.3°C 72.8°F22.7°C 71% 1.4 mph SE2.3 kmh SE 6.0 mph9.7 kmh 29.90 in1012.5 mb 0.00 in0.0 mm 0.00 in0.0 mm 0.00 in0.0 mm
06:47 PM 83.1°F28.4°C 72.7°F22.6°C 71% 1.1 mph SE1.8 kmh SE 3.0 mph4.8 kmh 29.90 in1012.5 mb 0.00 in0.0 mm 0.00 in0.0 mm 0.00 in0.0 mm
06:52 PM 83.0°F28.3°C 73.7°F23.2°C 73% Calm Calm 3.0 mph4.8 kmh 29.90 in1012.5 mb 0.00 in0.0 mm 0.00 in0.0 mm 0.00 in0.0 mm
06:57 PM 82.8°F28.2°C 74.3°F23.5°C 75% Calm Calm 3.0 mph4.8 kmh 29.90 in1012.5 mb 0.00 in0.0 mm 0.00 in0.0 mm 0.00 in0.0 mm
07:02 PM 82.7°F28.2°C 74.9°F23.8°C 77% 3.1 mph SW5.0 kmh SW 9.0 mph14.5 kmh 29.91 in1012.9 mb 0.00 in0.0 mm 0.00 in0.0 mm 0.00 in0.0 mm
07:07 PM 82.2°F27.9°C 73.3°F22.9°C 74% 1.8 mph SW2.9 kmh SW 9.0 mph14.5 kmh 29.90 in1012.5 mb 0.00 in0.0 mm 0.00 in0.0 mm 0.00 in0.0 mm
07:12 PM 82.4°F28.0°C 73.5°F23.1°C 74% 1.5 mph SW2.4 kmh SW 9.0 mph14.5 kmh 29.90 in1012.5 mb 0.00 in0.0 mm 0.00 in0.0 mm 0.00 in0.0 mm
07:17 PM 83.0°F28.3°C 74.3°F23.5°C 75% Calm Calm 9.0 mph14.5 kmh 29.90 in1012.5 mb 0.00 in0.0 mm 0.00 in0.0 mm 0.00 in0.0 mm
07:22 PM 83.8°F28.8°C 74.0°F23.3°C 72% 2.2 mph SSW3.5 kmh SSW 4.0 mph6.4 kmh 29.90 in1012.5 mb 0.00 in0.0 mm 0.00 in0.0 mm 0.00 in0.0 mm
07:27 PM 84.7°F29.3°C 74.1°F23.4°C 70% Calm Calm 4.0 mph6.4 kmh 29.90 in1012.5 mb 0.00 in0.0 mm 0.00 in0.0 mm 0.00 in0.0 mm
07:32 PM 85.3°F29.6°C 74.2°F23.4°C 69% 1.0 mph S1.6 kmh S 4.0 mph6.4 kmh 29.90 in1012.5 mb 0.00 in0.0 mm 0.00 in0.0 mm 0.00 in0.0 mm
07:37 PM 85.8°F29.9°C 73.8°F23.2°C 67% 1.0 mph SW1.6 kmh SW 4.0 mph6.4 kmh 29.90 in1012.5 mb 0.00 in0.0 mm 0.00 in0.0 mm 0.00 in0.0 mm
07:42 PM 86.3°F30.2°C 73.9°F23.3°C 66% 1.0 mph SSW1.6 kmh SSW 2.0 mph3.2 kmh 29.90 in1012.5 mb 0.00 in0.0 mm 0.00 in0.0 mm 0.00 in0.0 mm
07:47 PM 86.2°F30.1°C 73.8°F23.2°C 66% 1.0 mph SW1.6 kmh SW 2.0 mph3.2 kmh 29.90 in1012.5 mb 0.00 in0.0 mm 0.00 in0.0 mm 0.00 in0.0 mm
07:52 PM 86.6°F30.3°C 74.2°F23.4°C 66% 1.0 mph SW1.6 kmh SW 1.0 mph1.6 kmh 29.90 in1012.5 mb 0.00 in0.0 mm 0.00 in0.0 mm 0.00 in0.0 mm
07:57 PM 87.2°F30.7°C 74.0°F23.3°C 65% 1.0 mph SW1.6 kmh SW 1.0 mph1.6 kmh 29.90 in1012.5 mb 0.00 in0.0 mm 0.00 in0.0 mm 0.00 in0.0 mm
08:02 PM 87.0°F30.6°C 74.1°F23.4°C 65% 1.5 mph SW2.4 kmh SW 2.0 mph3.2 kmh 29.90 in1012.5 mb 0.00 in0.0 mm 0.00 in0.0 mm 0.00 in0.0 mm
08:07 PM 86.6°F30.3°C 74.6°F23.7°C 67% Calm Calm 3.0 mph4.8 kmh 29.90 in1012.5 mb 0.00 in0.0 mm 0.00 in0.0 mm 0.00 in0.0 mm
08:12 PM 86.1°F30.1°C 74.6°F23.7°C 68% 1.3 mph S2.1 kmh S 3.0 mph4.8 kmh 29.91 in1012.9 mb 0.00 in0.0 mm 0.00 in0.0 mm 0.00 in0.0 mm
08:17 PM 85.3°F29.6°C 72.5°F22.5°C 65% 1.0 mph SW1.6 kmh SW 7.0 mph11.3 kmh 29.91 in1012.9 mb 0.00 in0.0 mm 0.00 in0.0 mm 0.00 in0.0 mm
08:22 PM 84.7°F29.3°C 71.9°F22.2°C 65% 2.3 mph SE3.7 kmh SE 7.0 mph11.3 kmh 29.91 in1012.9 mb 0.00 in0.0 mm 0.00 in0.0 mm 0.00 in0.0 mm
08:27 PM 83.9°F28.8°C 71.1°F21.7°C 65% 1.5 mph SW2.4 kmh SW 7.0 mph11.3 kmh 29.91 in1012.9 mb 0.00 in0.0 mm 0.00 in0.0 mm 0.00 in0.0 mm
08:32 PM 83.3°F28.5°C 71.5°F21.9°C 67% 1.8 mph SW2.9 kmh SW 6.0 mph9.7 kmh 29.91 in1012.9 mb 0.00 in0.0 mm 0.00 in0.0 mm 0.00 in0.0 mm
08:37 PM 82.7°F28.2°C 71.3°F21.8°C 68% 1.0 mph SW1.6 kmh SW 5.0 mph8.0 kmh 29.91 in1012.9 mb 0.00 in0.0 mm 0.00 in0.0 mm 0.00 in0.0 mm
08:42 PM 82.1°F27.8°C 70.7°F21.5°C 68% 1.3 mph SE2.1 kmh SE 5.0 mph8.0 kmh 29.91 in1012.9 mb 0.00 in0.0 mm 0.00 in0.0 mm 0.00 in0.0 mm
08:47 PM 81.7°F27.6°C 71.2°F21.8°C 70% 2.4 mph SW3.9 kmh SW 4.0 mph6.4 kmh 29.91 in1012.9 mb 0.00 in0.0 mm 0.00 in0.0 mm 0.00 in0.0 mm
08:51 PM 81.2°F27.3°C 71.1°F21.7°C 71% Calm Calm 4.0 mph6.4 kmh 29.92 in1013.2 mb 0.00 in0.0 mm 0.00 in0.0 mm 0.00 in0.0 mm
08:56 PM 81.0°F27.2°C 71.3°F21.8°C 72% 1.2 mph SW1.9 kmh SW 4.0 mph6.4 kmh 29.92 in1013.2 mb 0.00 in0.0 mm 0.00 in0.0 mm 0.00 in0.0 mm
09:01 PM 80.6°F27.0°C 71.3°F21.8°C 73% 1.2 mph SW1.9 kmh SW 4.0 mph6.4 kmh 29.92 in1013.2 mb 0.00 in0.0 mm 0.00 in0.0 mm 0.00 in0.0 mm
09:06 PM 80.3°F26.8°C 70.9°F21.6°C 73% Calm Calm 2.0 mph3.2 kmh 29.92 in1013.2 mb 0.00 in0.0 mm 0.00 in0.0 mm 0.00 in0.0 mm
09:11 PM 80.1°F26.7°C 71.3°F21.8°C 74% 1.0 mph SW1.6 kmh SW 2.0 mph3.2 kmh 29.92 in1013.2 mb 0.00 in0.0 mm 0.00 in0.0 mm 0.00 in0.0 mm
09:16 PM 79.8°F26.6°C 71.3°F21.8°C 75% Calm Calm 2.0 mph3.2 kmh 29.92 in1013.2 mb 0.00 in0.0 mm 0.00 in0.0 mm 0.00 in0.0 mm
09:21 PM 79.6°F26.4°C 71.2°F21.8°C 75% 1.0 mph SW1.6 kmh SW 1.0 mph1.6 kmh 29.92 in1013.2 mb 0.00 in0.0 mm 0.00 in0.0 mm 0.00 in0.0 mm
09:26 PM 79.4°F26.3°C 71.3°F21.8°C 76% Calm Calm 1.0 mph1.6 kmh 29.92 in1013.2 mb 0.00 in0.0 mm 0.00 in0.0 mm 0.00 in0.0 mm
09:31 PM 79.2°F26.2°C 71.1°F21.7°C 76% Calm Calm 1.0 mph1.6 kmh 29.92 in1013.2 mb 0.00 in0.0 mm 0.00 in0.0 mm 0.00 in0.0 mm
09:36 PM 79.0°F26.1°C 70.9°F21.6°C 76% 1.0 mph SW1.6 kmh SW 1.0 mph1.6 kmh 29.92 in1013.2 mb 0.00 in0.0 mm 0.00 in0.0 mm 0.00 in0.0 mm
09:41 PM 78.8°F26.0°C 71.1°F21.7°C 77% Calm Calm 1.0 mph1.6 kmh 29.92 in1013.2 mb 0.00 in0.0 mm 0.00 in0.0 mm 0.00 in0.0 mm
09:46 PM 78.6°F25.9°C 70.9°F21.6°C 77% 1.0 mph SW1.6 kmh SW 1.0 mph1.6 kmh 29.92 in1013.2 mb 0.00 in0.0 mm 0.00 in0.0 mm 0.00 in0.0 mm
09:51 PM 78.4°F25.8°C 71.1°F21.7°C 78% Calm Calm 1.0 mph1.6 kmh 29.92 in1013.2 mb 0.00 in0.0 mm 0.00 in0.0 mm 0.00 in0.0 mm
09:56 PM 78.3°F25.7°C 71.0°F21.7°C 78% Calm Calm 1.0 mph1.6 kmh 29.92 in1013.2 mb 0.00 in0.0 mm 0.00 in0.0 mm 0.00 in0.0 mm
10:01 PM 78.2°F25.7°C 71.2°F21.8°C 79% Calm Calm 1.0 mph1.6 kmh 29.92 in1013.2 mb 0.00 in0.0 mm 0.00 in0.0 mm 0.00 in0.0 mm
10:06 PM 78.1°F25.6°C 71.1°F21.7°C 79% Calm Calm 1.0 mph1.6 kmh 29.92 in1013.2 mb 0.00 in0.0 mm 0.00 in0.0 mm 0.00 in0.0 mm
10:11 PM 77.9°F25.5°C 71.0°F21.7°C 79% Calm Calm 1.0 mph1.6 kmh 29.92 in1013.2 mb 0.00 in0.0 mm 0.00 in0.0 mm 0.00 in0.0 mm
10:16 PM 77.8°F25.4°C 70.9°F21.6°C 79% 1.0 mph SSW1.6 kmh SSW 1.0 mph1.6 kmh 29.92 in1013.2 mb 0.00 in0.0 mm 0.00 in0.0 mm 0.00 in0.0 mm
10:21 PM 77.7°F25.4°C 70.8°F21.6°C 79% 1.0 mph SE1.6 kmh SE 1.0 mph1.6 kmh 29.93 in1013.5 mb 0.00 in0.0 mm 0.00 in0.0 mm 0.00 in0.0 mm
10:26 PM 77.8°F25.4°C 70.9°F21.6°C 79% Calm Calm 1.0 mph1.6 kmh 29.93 in1013.5 mb 0.00 in0.0 mm 0.00 in0.0 mm 0.00 in0.0 mm
10:31 PM 77.7°F25.4°C 70.8°F21.6°C 79% Calm Calm 2.0 mph3.2 kmh 29.93 in1013.5 mb 0.00 in0.0 mm 0.00 in0.0 mm 0.00 in0.0 mm
10:36 PM 77.6°F25.3°C 70.9°F21.6°C 80% Calm Calm 2.0 mph3.2 kmh 29.93 in1013.5 mb 0.00 in0.0 mm 0.00 in0.0 mm 0.00 in0.0 mm
10:41 PM 77.5°F25.3°C 70.9°F21.6°C 80% Calm Calm 3.0 mph4.8 kmh 29.93 in1013.5 mb 0.00 in0.0 mm 0.00 in0.0 mm 0.00 in0.0 mm
10:46 PM 77.3°F25.2°C 71.1°F21.7°C 81% Calm Calm 3.0 mph4.8 kmh 29.93 in1013.5 mb 0.00 in0.0 mm 0.00 in0.0 mm 0.00 in0.0 mm
10:51 PM 77.2°F25.1°C 71.0°F21.7°C 81% 1.2 mph SW1.9 kmh SW 4.0 mph6.4 kmh 29.93 in1013.5 mb 0.00 in0.0 mm 0.00 in0.0 mm 0.00 in0.0 mm
10:56 PM 77.2°F25.1°C 71.4°F21.9°C 82% Calm Calm 4.0 mph6.4 kmh 29.93 in1013.5 mb 0.00 in0.0 mm 0.00 in0.0 mm 0.00 in0.0 mm
11:01 PM 77.1°F25.1°C 71.3°F21.8°C 82% Calm Calm 4.0 mph6.4 kmh 29.94 in1013.9 mb 0.00 in0.0 mm 0.00 in0.0 mm 0.00 in0.0 mm
11:06 PM 77.0°F25.0°C 71.1°F21.7°C 82% 1.0 mph SW1.6 kmh SW 4.0 mph6.4 kmh 29.94 in1013.9 mb 0.00 in0.0 mm 0.00 in0.0 mm 0.00 in0.0 mm
11:11 PM 76.9°F24.9°C 71.4°F21.9°C 83% Calm Calm 3.0 mph4.8 kmh 29.93 in1013.5 mb 0.00 in0.0 mm 0.00 in0.0 mm 0.00 in0.0 mm
11:16 PM 76.8°F24.9°C 71.3°F21.8°C 83% 1.0 mph S1.6 kmh S 4.0 mph6.4 kmh 29.94 in1013.9 mb 0.00 in0.0 mm 0.00 in0.0 mm 0.00 in0.0 mm
11:21 PM 76.6°F24.8°C 71.1°F21.7°C 83% Calm Calm 4.0 mph6.4 kmh 29.94 in1013.9 mb 0.00 in0.0 mm 0.00 in0.0 mm 0.00 in0.0 mm
11:26 PM 76.5°F24.7°C 71.4°F21.9°C 84% Calm Calm 4.0 mph6.4 kmh 29.93 in1013.5 mb 0.00 in0.0 mm 0.00 in0.0 mm 0.00 in0.0 mm
11:31 PM 76.3°F24.6°C 71.5°F21.9°C 85% Calm Calm 4.0 mph6.4 kmh 29.94 in1013.9 mb 0.00 in0.0 mm 0.00 in0.0 mm 0.00 in0.0 mm
11:36 PM 76.1°F24.5°C 71.3°F21.8°C 85% 1.0 mph SSE1.6 kmh SSE 2.0 mph3.2 kmh 29.93 in1013.5 mb 0.00 in0.0 mm 0.00 in0.0 mm 0.00 in0.0 mm
11:41 PM 76.0°F24.4°C 71.5°F21.9°C 86% 1.0 mph SSW1.6 kmh SSW 2.0 mph3.2 kmh 29.94 in1013.9 mb 0.00 in0.0 mm 0.00 in0.0 mm 0.00 in0.0 mm
11:46 PM 75.9°F24.4°C 71.4°F21.9°C 86% 1.0 mph SW1.6 kmh SW 2.0 mph3.2 kmh 29.94 in1013.9 mb 0.00 in0.0 mm 0.00 in0.0 mm 0.00 in0.0 mm
11:51 PM 75.9°F24.4°C 71.8°F22.1°C 87% 1.0 mph SW1.6 kmh SW 2.0 mph3.2 kmh 29.94 in1013.9 mb 0.00 in0.0 mm 0.00 in0.0 mm 0.00 in0.0 mm
11:56 PM 75.9°F24.4°C 71.8°F22.1°C 87% 1.0 mph WSW1.6 kmh WSW 2.0 mph3.2 kmh 29.93 in1013.5 mb 0.00 in0.0 mm 0.00 in0.0 mm 0.00 in0.0 mm